sensor_id;sensor_type;location;lat;lon;timestamp;P1;durP1;ratioP1;P2;durP2;ratioP2
3131;SDS011;62090;52.330;9.104;2022-12-20T00:02:12;16.37;;;11.00;;
3131;SDS011;62090;52.330;9.104;2022-12-20T00:04:42;21.70;;;11.27;;
3131;SDS011;62090;52.330;9.104;2022-12-20T00:07:12;20.03;;;11.20;;
3131;SDS011;62090;52.330;9.104;2022-12-20T00:09:44;18.10;;;11.93;;
3131;SDS011;62090;52.330;9.104;2022-12-20T00:12:14;18.33;;;12.13;;
3131;SDS011;62090;52.330;9.104;2022-12-20T00:14:44;18.73;;;11.87;;
3131;SDS011;62090;52.330;9.104;2022-12-20T00:17:14;19.97;;;11.77;;
3131;SDS011;62090;52.330;9.104;2022-12-20T00:19:43;17.40;;;12.20;;
3131;SDS011;62090;52.330;9.104;2022-12-20T00:22:13;20.90;;;11.87;;
3131;SDS011;62090;52.330;9.104;2022-12-20T00:24:46;20.17;;;11.80;;
3131;SDS011;62090;52.330;9.104;2022-12-20T00:27:15;18.13;;;12.23;;
3131;SDS011;62090;52.330;9.104;2022-12-20T00:29:45;20.40;;;12.20;;
3131;SDS011;62090;52.330;9.104;2022-12-20T00:32:15;17.13;;;11.50;;
3131;SDS011;62090;52.330;9.104;2022-12-20T00:34:45;21.10;;;12.40;;
3131;SDS011;62090;52.330;9.104;2022-12-20T00:37:14;19.67;;;11.30;;
3131;SDS011;62090;52.330;9.104;2022-12-20T00:39:47;17.57;;;10.67;;
3131;SDS011;62090;52.330;9.104;2022-12-20T00:42:17;16.93;;;11.33;;
3131;SDS011;62090;52.330;9.104;2022-12-20T00:44:46;18.90;;;11.80;;
3131;SDS011;62090;52.330;9.104;2022-12-20T00:47:16;16.03;;;11.03;;
3131;SDS011;62090;52.330;9.104;2022-12-20T00:49:46;17.53;;;10.63;;
3131;SDS011;62090;52.330;9.104;2022-12-20T00:52:16;18.00;;;11.10;;
3131;SDS011;62090;52.330;9.104;2022-12-20T00:54:48;19.13;;;11.10;;
3131;SDS011;62090;52.330;9.104;2022-12-20T00:57:18;17.57;;;10.50;;
3131;SDS011;62090;52.330;9.104;2022-12-20T00:59:48;16.97;;;11.33;;
3131;SDS011;62090;52.330;9.104;2022-12-20T01:02:18;19.80;;;11.30;;
3131;SDS011;62090;52.330;9.104;2022-12-20T01:04:48;16.00;;;10.60;;
3131;SDS011;62090;52.330;9.104;2022-12-20T01:07:18;16.17;;;10.93;;
3131;SDS011;62090;52.330;9.104;2022-12-20T01:09:51;16.80;;;9.80;;
3131;SDS011;62090;52.330;9.104;2022-12-20T01:12:21;16.63;;;10.70;;
3131;SDS011;62090;52.330;9.104;2022-12-20T01:14:51;15.07;;;10.20;;
3131;SDS011;62090;52.330;9.104;2022-12-20T01:17:21;18.30;;;10.80;;
3131;SDS011;62090;52.330;9.104;2022-12-20T01:19:51;21.30;;;12.20;;
3131;SDS011;62090;52.330;9.104;2022-12-20T01:22:21;18.07;;;12.23;;
3131;SDS011;62090;52.330;9.104;2022-12-20T01:24:53;17.17;;;11.10;;
3131;SDS011;62090;52.330;9.104;2022-12-20T01:27:23;14.77;;;11.07;;
3131;SDS011;62090;52.330;9.104;2022-12-20T01:29:54;18.93;;;11.03;;
3131;SDS011;62090;52.330;9.104;2022-12-20T01:32:24;18.17;;;11.90;;
3131;SDS011;62090;52.330;9.104;2022-12-20T01:34:53;16.37;;;10.93;;
3131;SDS011;62090;52.330;9.104;2022-12-20T01:37:23;17.10;;;11.40;;
3131;SDS011;62090;52.330;9.104;2022-12-20T01:39:56;19.60;;;11.57;;
3131;SDS011;62090;52.330;9.104;2022-12-20T01:42:25;17.07;;;11.70;;
3131;SDS011;62090;52.330;9.104;2022-12-20T01:44:57;14.90;;;10.20;;
3131;SDS011;62090;52.330;9.104;2022-12-20T01:47:29;18.33;;;10.17;;
3131;SDS011;62090;52.330;9.104;2022-12-20T01:50:03;17.07;;;11.37;;
3131;SDS011;62090;52.330;9.104;2022-12-20T01:52:36;17.70;;;10.57;;
3131;SDS011;62090;52.330;9.104;2022-12-20T01:55:14;15.70;;;10.90;;
3131;SDS011;62090;52.330;9.104;2022-12-20T01:57:46;19.80;;;10.00;;
3131;SDS011;62090;52.330;9.104;2022-12-20T02:00:21;18.43;;;11.27;;
3131;SDS011;62090;52.330;9.104;2022-12-20T02:02:51;14.60;;;9.80;;
3131;SDS011;62090;52.330;9.104;2022-12-20T02:05:22;12.23;;;9.47;;
3131;SDS011;62090;52.330;9.104;2022-12-20T02:07:52;12.27;;;9.40;;
3131;SDS011;62090;52.330;9.104;2022-12-20T02:10:28;14.37;;;10.17;;
3131;SDS011;62090;52.330;9.104;2022-12-20T02:13:10;19.87;;;9.83;;
3131;SDS011;62090;52.330;9.104;2022-12-20T02:15:46;16.53;;;10.03;;
3131;SDS011;62090;52.330;9.104;2022-12-20T02:18:24;13.50;;;9.73;;
3131;SDS011;62090;52.330;9.104;2022-12-20T02:21:03;17.03;;;10.40;;
3131;SDS011;62090;52.330;9.104;2022-12-20T02:23:44;16.40;;;10.60;;
3131;SDS011;62090;52.330;9.104;2022-12-20T02:26:36;15.77;;;10.40;;
3131;SDS011;62090;52.330;9.104;2022-12-20T02:29:20;14.97;;;9.47;;
3131;SDS011;62090;52.330;9.104;2022-12-20T02:31:59;15.90;;;9.90;;
3131;SDS011;62090;52.330;9.104;2022-12-20T02:34:33;13.40;;;9.00;;
3131;SDS011;62090;52.330;9.104;2022-12-20T02:37:05;17.93;;;10.80;;
3131;SDS011;62090;52.330;9.104;2022-12-20T02:39:36;16.17;;;10.10;;
3131;SDS011;62090;52.330;9.104;2022-12-20T02:42:08;18.43;;;9.60;;
3131;SDS011;62090;52.330;9.104;2022-12-20T02:44:42;15.30;;;9.53;;
3131;SDS011;62090;52.330;9.104;2022-12-20T02:47:32;15.43;;;9.77;;
3131;SDS011;62090;52.330;9.104;2022-12-20T02:50:06;13.83;;;10.10;;
3131;SDS011;62090;52.330;9.104;2022-12-20T02:52:38;15.70;;;9.50;;
3131;SDS011;62090;52.330;9.104;2022-12-20T02:55:08;14.27;;;8.87;;
3131;SDS011;62090;52.330;9.104;2022-12-20T02:57:41;15.30;;;9.67;;
3131;SDS011;62090;52.330;9.104;2022-12-20T03:00:20;15.10;;;9.20;;
3131;SDS011;62090;52.330;9.104;2022-12-20T03:02:55;16.67;;;10.77;;
3131;SDS011;62090;52.330;9.104;2022-12-20T03:05:42;17.10;;;9.63;;
3131;SDS011;62090;52.330;9.104;2022-12-20T03:08:16;14.93;;;9.87;;
3131;SDS011;62090;52.330;9.104;2022-12-20T03:10:47;14.30;;;9.53;;
3131;SDS011;62090;52.330;9.104;2022-12-20T03:13:18;18.20;;;10.47;;
3131;SDS011;62090;52.330;9.104;2022-12-20T03:16:02;18.37;;;10.30;;
3131;SDS011;62090;52.330;9.104;2022-12-20T03:18:35;17.80;;;10.20;;
3131;SDS011;62090;52.330;9.104;2022-12-20T03:21:05;16.10;;;10.53;;
3131;SDS011;62090;52.330;9.104;2022-12-20T03:23:35;17.93;;;10.03;;
3131;SDS011;62090;52.330;9.104;2022-12-20T03:26:05;17.50;;;10.13;;
3131;SDS011;62090;52.330;9.104;2022-12-20T03:28:40;17.40;;;9.43;;
3131;SDS011;62090;52.330;9.104;2022-12-20T03:31:14;15.33;;;9.50;;
3131;SDS011;62090;52.330;9.104;2022-12-20T03:33:51;12.37;;;8.80;;
3131;SDS011;62090;52.330;9.104;2022-12-20T03:36:21;14.57;;;8.97;;
3131;SDS011;62090;52.330;9.104;2022-12-20T03:38:56;14.83;;;9.47;;
3131;SDS011;62090;52.330;9.104;2022-12-20T03:41:29;16.20;;;9.80;;
3131;SDS011;62090;52.330;9.104;2022-12-20T03:43:59;14.07;;;9.60;;
3131;SDS011;62090;52.330;9.104;2022-12-20T03:46:29;17.43;;;10.40;;
3131;SDS011;62090;52.330;9.104;2022-12-20T03:49:02;18.60;;;10.73;;
3131;SDS011;62090;52.330;9.104;2022-12-20T03:51:39;15.77;;;9.83;;
3131;SDS011;62090;52.330;9.104;2022-12-20T03:54:09;14.70;;;9.70;;
3131;SDS011;62090;52.330;9.104;2022-12-20T03:57:05;15.60;;;10.90;;
3131;SDS011;62090;52.330;9.104;2022-12-20T03:59:35;19.37;;;11.90;;
3131;SDS011;62090;52.330;9.104;2022-12-20T04:02:07;17.40;;;10.13;;
3131;SDS011;62090;52.330;9.104;2022-12-20T04:04:40;17.63;;;11.63;;
3131;SDS011;62090;52.330;9.104;2022-12-20T04:07:10;17.50;;;10.80;;
3131;SDS011;62090;52.330;9.104;2022-12-20T04:09:44;17.00;;;11.30;;
3131;SDS011;62090;52.330;9.104;2022-12-20T04:12:15;15.93;;;11.00;;
3131;SDS011;62090;52.330;9.104;2022-12-20T04:14:45;18.07;;;10.60;;
3131;SDS011;62090;52.330;9.104;2022-12-20T04:17:14;16.17;;;10.40;;
3131;SDS011;62090;52.330;9.104;2022-12-20T04:19:48;17.60;;;11.80;;
3131;SDS011;62090;52.330;9.104;2022-12-20T04:22:19;18.63;;;12.27;;
3131;SDS011;62090;52.330;9.104;2022-12-20T04:24:55;17.30;;;11.10;;
3131;SDS011;62090;52.330;9.104;2022-12-20T04:27:30;20.00;;;11.60;;
3131;SDS011;62090;52.330;9.104;2022-12-20T04:30:04;17.97;;;11.30;;
3131;SDS011;62090;52.330;9.104;2022-12-20T04:32:37;17.53;;;12.17;;
3131;SDS011;62090;52.330;9.104;2022-12-20T04:35:10;18.43;;;13.03;;
3131;SDS011;62090;52.330;9.104;2022-12-20T04:37:41;18.43;;;11.77;;
3131;SDS011;62090;52.330;9.104;2022-12-20T04:40:13;20.07;;;11.93;;
3131;SDS011;62090;52.330;9.104;2022-12-20T04:42:49;18.63;;;12.50;;
3131;SDS011;62090;52.330;9.104;2022-12-20T04:45:19;18.53;;;13.43;;
3131;SDS011;62090;52.330;9.104;2022-12-20T04:47:50;22.00;;;13.50;;
3131;SDS011;62090;52.330;9.104;2022-12-20T04:50:28;18.57;;;12.37;;
3131;SDS011;62090;52.330;9.104;2022-12-20T04:52:58;23.10;;;13.80;;
3131;SDS011;62090;52.330;9.104;2022-12-20T04:55:41;19.37;;;13.53;;
3131;SDS011;62090;52.330;9.104;2022-12-20T04:58:10;21.63;;;14.37;;
3131;SDS011;62090;52.330;9.104;2022-12-20T05:00:40;20.73;;;13.43;;
3131;SDS011;62090;52.330;9.104;2022-12-20T05:03:22;21.30;;;14.43;;
3131;SDS011;62090;52.330;9.104;2022-12-20T05:05:57;20.00;;;14.37;;
3131;SDS011;62090;52.330;9.104;2022-12-20T05:08:27;22.40;;;14.83;;
3131;SDS011;62090;52.330;9.104;2022-12-20T05:10:58;18.83;;;14.00;;
3131;SDS011;62090;52.330;9.104;2022-12-20T05:13:30;25.10;;;15.43;;
3131;SDS011;62090;52.330;9.104;2022-12-20T05:16:00;21.93;;;15.13;;
3131;SDS011;62090;52.330;9.104;2022-12-20T05:18:33;24.83;;;15.17;;
3131;SDS011;62090;52.330;9.104;2022-12-20T05:21:11;21.20;;;14.20;;
3131;SDS011;62090;52.330;9.104;2022-12-20T05:23:53;31.80;;;16.83;;
3131;SDS011;62090;52.330;9.104;2022-12-20T05:26:48;22.47;;;14.33;;
3131;SDS011;62090;52.330;9.104;2022-12-20T05:29:18;27.10;;;17.47;;
3131;SDS011;62090;52.330;9.104;2022-12-20T05:31:48;21.07;;;14.30;;
3131;SDS011;62090;52.330;9.104;2022-12-20T05:34:19;21.33;;;14.27;;
3131;SDS011;62090;52.330;9.104;2022-12-20T05:36:54;23.70;;;15.70;;
3131;SDS011;62090;52.330;9.104;2022-12-20T05:39:28;22.53;;;15.20;;
3131;SDS011;62090;52.330;9.104;2022-12-20T05:42:03;23.57;;;13.87;;
3131;SDS011;62090;52.330;9.104;2022-12-20T05:44:34;24.83;;;14.53;;
3131;SDS011;62090;52.330;9.104;2022-12-20T05:47:03;27.50;;;15.53;;
3131;SDS011;62090;52.330;9.104;2022-12-20T05:49:35;21.30;;;15.10;;
3131;SDS011;62090;52.330;9.104;2022-12-20T05:52:10;21.70;;;14.47;;
3131;SDS011;62090;52.330;9.104;2022-12-20T05:54:41;27.23;;;15.30;;
3131;SDS011;62090;52.330;9.104;2022-12-20T05:57:14;23.33;;;14.93;;
3131;SDS011;62090;52.330;9.104;2022-12-20T05:59:45;24.10;;;15.33;;
3131;SDS011;62090;52.330;9.104;2022-12-20T06:02:17;25.53;;;15.83;;
3131;SDS011;62090;52.330;9.104;2022-12-20T06:04:53;23.10;;;14.87;;
3131;SDS011;62090;52.330;9.104;2022-12-20T06:07:27;24.33;;;15.10;;
3131;SDS011;62090;52.330;9.104;2022-12-20T06:09:58;21.43;;;14.10;;
3131;SDS011;62090;52.330;9.104;2022-12-20T06:13:07;21.77;;;15.43;;
3131;SDS011;62090;52.330;9.104;2022-12-20T06:15:40;27.27;;;15.83;;
3131;SDS011;62090;52.330;9.104;2022-12-20T06:18:10;23.23;;;15.43;;
3131;SDS011;62090;52.330;9.104;2022-12-20T06:20:40;23.13;;;15.30;;
3131;SDS011;62090;52.330;9.104;2022-12-20T06:23:18;23.00;;;16.00;;
3131;SDS011;62090;52.330;9.104;2022-12-20T06:26:02;23.00;;;15.77;;
3131;SDS011;62090;52.330;9.104;2022-12-20T06:28:40;21.33;;;15.50;;
3131;SDS011;62090;52.330;9.104;2022-12-20T06:31:13;21.23;;;14.07;;
3131;SDS011;62090;52.330;9.104;2022-12-20T06:33:48;22.23;;;15.57;;
3131;SDS011;62090;52.330;9.104;2022-12-20T06:36:20;22.57;;;14.73;;
3131;SDS011;62090;52.330;9.104;2022-12-20T06:38:53;22.70;;;14.47;;
3131;SDS011;62090;52.330;9.104;2022-12-20T06:41:24;24.30;;;15.40;;
3131;SDS011;62090;52.330;9.104;2022-12-20T06:43:54;28.30;;;14.37;;
3131;SDS011;62090;52.330;9.104;2022-12-20T06:46:24;24.90;;;14.80;;
3131;SDS011;62090;52.330;9.104;2022-12-20T06:48:55;28.70;;;15.07;;
3131;SDS011;62090;52.330;9.104;2022-12-20T06:51:26;21.03;;;14.77;;
3131;SDS011;62090;52.330;9.104;2022-12-20T06:54:01;23.57;;;14.87;;
3131;SDS011;62090;52.330;9.104;2022-12-20T06:56:34;24.30;;;17.30;;
3131;SDS011;62090;52.330;9.104;2022-12-20T06:59:10;23.60;;;15.40;;
3131;SDS011;62090;52.330;9.104;2022-12-20T07:01:40;23.57;;;16.30;;
3131;SDS011;62090;52.330;9.104;2022-12-20T07:04:10;26.50;;;16.77;;
3131;SDS011;62090;52.330;9.104;2022-12-20T07:06:40;21.23;;;14.50;;
3131;SDS011;62090;52.330;9.104;2022-12-20T07:09:15;21.90;;;13.80;;
3131;SDS011;62090;52.330;9.104;2022-12-20T07:11:45;22.70;;;15.17;;
3131;SDS011;62090;52.330;9.104;2022-12-20T07:14:15;21.60;;;15.07;;
3131;SDS011;62090;52.330;9.104;2022-12-20T07:16:46;23.70;;;14.80;;
3131;SDS011;62090;52.330;9.104;2022-12-20T07:19:17;21.67;;;15.00;;
3131;SDS011;62090;52.330;9.104;2022-12-20T07:21:47;22.93;;;14.87;;
3131;SDS011;62090;52.330;9.104;2022-12-20T07:24:20;21.63;;;14.50;;
3131;SDS011;62090;52.330;9.104;2022-12-20T07:26:51;19.33;;;13.80;;
3131;SDS011;62090;52.330;9.104;2022-12-20T07:29:23;24.57;;;15.10;;
3131;SDS011;62090;52.330;9.104;2022-12-20T07:31:53;22.97;;;15.70;;
3131;SDS011;62090;52.330;9.104;2022-12-20T07:34:23;23.60;;;15.37;;
3131;SDS011;62090;52.330;9.104;2022-12-20T07:36:54;22.73;;;14.10;;
3131;SDS011;62090;52.330;9.104;2022-12-20T07:39:27;25.60;;;14.10;;
3131;SDS011;62090;52.330;9.104;2022-12-20T07:41:57;25.03;;;14.53;;
3131;SDS011;62090;52.330;9.104;2022-12-20T07:44:35;18.90;;;13.50;;
3131;SDS011;62090;52.330;9.104;2022-12-20T07:47:05;18.60;;;13.43;;
3131;SDS011;62090;52.330;9.104;2022-12-20T07:49:36;19.43;;;13.57;;
3131;SDS011;62090;52.330;9.104;2022-12-20T07:52:07;21.20;;;13.70;;
3131;SDS011;62090;52.330;9.104;2022-12-20T07:54:42;28.63;;;15.10;;
3131;SDS011;62090;52.330;9.104;2022-12-20T07:57:18;24.63;;;14.50;;
3131;SDS011;62090;52.330;9.104;2022-12-20T07:59:52;22.20;;;14.43;;
3131;SDS011;62090;52.330;9.104;2022-12-20T08:02:27;25.53;;;14.50;;
3131;SDS011;62090;52.330;9.104;2022-12-20T08:05:01;20.90;;;13.90;;
3131;SDS011;62090;52.330;9.104;2022-12-20T08:07:33;18.57;;;12.77;;
3131;SDS011;62090;52.330;9.104;2022-12-20T08:10:09;22.17;;;15.63;;
3131;SDS011;62090;52.330;9.104;2022-12-20T08:12:42;22.67;;;15.23;;
3131;SDS011;62090;52.330;9.104;2022-12-20T08:15:13;22.30;;;14.80;;
3131;SDS011;62090;52.330;9.104;2022-12-20T08:17:44;21.57;;;14.40;;
3131;SDS011;62090;52.330;9.104;2022-12-20T08:20:14;21.90;;;14.63;;
3131;SDS011;62090;52.330;9.104;2022-12-20T08:22:45;21.90;;;14.33;;
3131;SDS011;62090;52.330;9.104;2022-12-20T08:25:17;24.60;;;14.63;;
3131;SDS011;62090;52.330;9.104;2022-12-20T08:27:47;20.70;;;12.83;;
3131;SDS011;62090;52.330;9.104;2022-12-20T08:30:18;25.00;;;14.00;;
3131;SDS011;62090;52.330;9.104;2022-12-20T08:32:49;23.23;;;14.23;;
3131;SDS011;62090;52.330;9.104;2022-12-20T08:35:22;21.43;;;13.73;;
3131;SDS011;62090;52.330;9.104;2022-12-20T08:37:51;20.23;;;13.93;;
3131;SDS011;62090;52.330;9.104;2022-12-20T08:40:25;22.10;;;12.97;;
3131;SDS011;62090;52.330;9.104;2022-12-20T08:42:55;17.43;;;11.70;;
3131;SDS011;62090;52.330;9.104;2022-12-20T08:45:30;20.83;;;12.10;;
3131;SDS011;62090;52.330;9.104;2022-12-20T08:48:00;17.60;;;12.50;;
3131;SDS011;62090;52.330;9.104;2022-12-20T08:50:30;20.83;;;13.30;;
3131;SDS011;62090;52.330;9.104;2022-12-20T08:53:01;21.03;;;12.53;;
3131;SDS011;62090;52.330;9.104;2022-12-20T08:55:33;21.30;;;12.00;;
3131;SDS011;62090;52.330;9.104;2022-12-20T08:58:03;25.00;;;13.30;;
3131;SDS011;62090;52.330;9.104;2022-12-20T09:00:33;20.67;;;13.27;;
3131;SDS011;62090;52.330;9.104;2022-12-20T09:03:02;17.97;;;12.00;;
3131;SDS011;62090;52.330;9.104;2022-12-20T09:05:33;18.53;;;11.60;;
3131;SDS011;62090;52.330;9.104;2022-12-20T09:08:03;18.27;;;11.37;;
3131;SDS011;62090;52.330;9.104;2022-12-20T09:10:36;19.43;;;13.20;;
3131;SDS011;62090;52.330;9.104;2022-12-20T09:13:06;17.83;;;11.33;;
3131;SDS011;62090;52.330;9.104;2022-12-20T09:15:36;17.87;;;11.87;;
3131;SDS011;62090;52.330;9.104;2022-12-20T09:18:07;15.50;;;12.13;;
3131;SDS011;62090;52.330;9.104;2022-12-20T09:20:41;19.93;;;11.77;;
3131;SDS011;62090;52.330;9.104;2022-12-20T09:23:12;18.07;;;11.60;;
3131;SDS011;62090;52.330;9.104;2022-12-20T09:25:44;19.40;;;11.70;;
3131;SDS011;62090;52.330;9.104;2022-12-20T09:28:19;18.20;;;10.17;;
3131;SDS011;62090;52.330;9.104;2022-12-20T09:30:49;16.73;;;10.77;;
3131;SDS011;62090;52.330;9.104;2022-12-20T09:33:19;19.27;;;11.00;;
3131;SDS011;62090;52.330;9.104;2022-12-20T09:35:49;16.97;;;10.40;;
3131;SDS011;62090;52.330;9.104;2022-12-20T09:38:19;14.20;;;9.87;;
3131;SDS011;62090;52.330;9.104;2022-12-20T09:40:52;16.53;;;9.80;;
3131;SDS011;62090;52.330;9.104;2022-12-20T09:43:25;15.23;;;9.77;;
3131;SDS011;62090;52.330;9.104;2022-12-20T09:45:56;16.50;;;10.37;;
3131;SDS011;62090;52.330;9.104;2022-12-20T09:48:29;12.83;;;9.93;;
3131;SDS011;62090;52.330;9.104;2022-12-20T09:51:06;17.63;;;9.90;;
3131;SDS011;62090;52.330;9.104;2022-12-20T09:53:47;17.10;;;10.40;;
3131;SDS011;62090;52.330;9.104;2022-12-20T09:56:32;15.17;;;9.93;;
3131;SDS011;62090;52.330;9.104;2022-12-20T09:59:07;26.03;;;12.67;;
3131;SDS011;62090;52.330;9.104;2022-12-20T10:01:42;15.67;;;11.70;;
3131;SDS011;62090;52.330;9.104;2022-12-20T10:04:15;16.60;;;11.20;;
3131;SDS011;62090;52.330;9.104;2022-12-20T10:06:54;18.53;;;11.47;;
3131;SDS011;62090;52.330;9.104;2022-12-20T10:09:40;17.50;;;11.00;;
3131;SDS011;62090;52.330;9.104;2022-12-20T10:12:27;15.33;;;10.60;;
3131;SDS011;62090;52.330;9.104;2022-12-20T10:15:11;14.80;;;9.53;;
3131;SDS011;62090;52.330;9.104;2022-12-20T10:17:50;17.53;;;10.97;;
3131;SDS011;62090;52.330;9.104;2022-12-20T10:20:33;15.43;;;9.60;;
3131;SDS011;62090;52.330;9.104;2022-12-20T10:23:16;20.10;;;10.57;;
3131;SDS011;62090;52.330;9.104;2022-12-20T10:25:59;14.10;;;9.37;;
3131;SDS011;62090;52.330;9.104;2022-12-20T10:28:32;14.37;;;9.63;;
3131;SDS011;62090;52.330;9.104;2022-12-20T10:31:04;17.33;;;9.53;;
3131;SDS011;62090;52.330;9.104;2022-12-20T10:33:37;16.00;;;11.20;;
3131;SDS011;62090;52.330;9.104;2022-12-20T10:36:19;13.80;;;9.77;;
3131;SDS011;62090;52.330;9.104;2022-12-20T10:38:55;15.83;;;10.40;;
3131;SDS011;62090;52.330;9.104;2022-12-20T10:41:26;12.63;;;9.30;;
3131;SDS011;62090;52.330;9.104;2022-12-20T10:44:01;13.13;;;9.73;;
3131;SDS011;62090;52.330;9.104;2022-12-20T10:46:35;15.30;;;9.60;;
3131;SDS011;62090;52.330;9.104;2022-12-20T10:49:19;20.40;;;11.37;;
3131;SDS011;62090;52.330;9.104;2022-12-20T10:51:55;16.10;;;9.50;;
3131;SDS011;62090;52.330;9.104;2022-12-20T10:54:28;15.73;;;10.03;;
3131;SDS011;62090;52.330;9.104;2022-12-20T10:57:02;15.33;;;10.63;;
3131;SDS011;62090;52.330;9.104;2022-12-20T10:59:47;19.77;;;11.50;;
3131;SDS011;62090;52.330;9.104;2022-12-20T11:02:25;15.13;;;10.67;;
3131;SDS011;62090;52.330;9.104;2022-12-20T11:05:18;16.80;;;10.27;;
3131;SDS011;62090;52.330;9.104;2022-12-20T11:07:54;16.50;;;10.60;;
3131;SDS011;62090;52.330;9.104;2022-12-20T11:10:46;16.50;;;9.83;;
3131;SDS011;62090;52.330;9.104;2022-12-20T11:13:18;15.43;;;10.50;;
3131;SDS011;62090;52.330;9.104;2022-12-20T11:15:54;17.33;;;10.17;;
3131;SDS011;62090;52.330;9.104;2022-12-20T11:18:29;15.40;;;9.67;;
3131;SDS011;62090;52.330;9.104;2022-12-20T11:21:11;18.30;;;10.30;;
3131;SDS011;62090;52.330;9.104;2022-12-20T11:23:56;13.50;;;9.97;;
3131;SDS011;62090;52.330;9.104;2022-12-20T11:26:34;15.40;;;9.63;;
3131;SDS011;62090;52.330;9.104;2022-12-20T11:29:23;15.30;;;9.17;;
3131;SDS011;62090;52.330;9.104;2022-12-20T11:32:11;16.50;;;9.97;;
3131;SDS011;62090;52.330;9.104;2022-12-20T11:34:55;12.53;;;9.23;;
3131;SDS011;62090;52.330;9.104;2022-12-20T11:37:34;13.17;;;8.97;;
3131;SDS011;62090;52.330;9.104;2022-12-20T11:40:15;19.37;;;9.40;;
3131;SDS011;62090;52.330;9.104;2022-12-20T11:42:59;14.13;;;9.40;;
3131;SDS011;62090;52.330;9.104;2022-12-20T11:45:51;13.23;;;8.13;;
3131;SDS011;62090;52.330;9.104;2022-12-20T11:51:33;18.63;;;9.37;;
3131;SDS011;62090;52.330;9.104;2022-12-20T11:54:09;13.00;;;9.07;;
3131;SDS011;62090;52.330;9.104;2022-12-20T11:56:46;16.57;;;9.30;;
3131;SDS011;62090;52.330;9.104;2022-12-20T11:59:19;17.67;;;10.10;;
3131;SDS011;62090;52.330;9.104;2022-12-20T12:01:59;19.73;;;9.83;;
3131;SDS011;62090;52.330;9.104;2022-12-20T12:04:37;15.57;;;8.97;;
3131;SDS011;62090;52.330;9.104;2022-12-20T12:07:14;16.13;;;9.60;;
3131;SDS011;62090;52.330;9.104;2022-12-20T12:09:50;17.47;;;9.90;;
3131;SDS011;62090;52.330;9.104;2022-12-20T12:12:25;18.20;;;8.23;;
3131;SDS011;62090;52.330;9.104;2022-12-20T12:14:59;11.80;;;8.20;;
3131;SDS011;62090;52.330;9.104;2022-12-20T12:17:45;14.23;;;8.03;;
3131;SDS011;62090;52.330;9.104;2022-12-20T12:20:24;14.53;;;8.40;;
3131;SDS011;62090;52.330;9.104;2022-12-20T12:23:00;11.83;;;8.30;;
3131;SDS011;62090;52.330;9.104;2022-12-20T12:25:42;14.20;;;9.00;;
3131;SDS011;62090;52.330;9.104;2022-12-20T12:28:14;10.03;;;7.00;;
3131;SDS011;62090;52.330;9.104;2022-12-20T12:30:51;11.63;;;7.97;;
3131;SDS011;62090;52.330;9.104;2022-12-20T12:33:26;13.30;;;8.20;;
3131;SDS011;62090;52.330;9.104;2022-12-20T12:36:14;14.97;;;8.20;;
3131;SDS011;62090;52.330;9.104;2022-12-20T12:45:11;16.30;;;10.17;;
3131;SDS011;62090;52.330;9.104;2022-12-20T12:47:47;24.43;;;13.80;;
3131;SDS011;62090;52.330;9.104;2022-12-20T12:50:25;21.63;;;12.67;;
3131;SDS011;62090;52.330;9.104;2022-12-20T12:53:02;15.90;;;10.60;;
3131;SDS011;62090;52.330;9.104;2022-12-20T12:55:35;18.67;;;9.70;;
3131;SDS011;62090;52.330;9.104;2022-12-20T13:00:59;13.80;;;8.47;;
3131;SDS011;62090;52.330;9.104;2022-12-20T13:03:35;12.43;;;8.47;;
3131;SDS011;62090;52.330;9.104;2022-12-20T13:09:16;12.20;;;8.13;;
3131;SDS011;62090;52.330;9.104;2022-12-20T13:11:50;11.20;;;8.10;;
3131;SDS011;62090;52.330;9.104;2022-12-20T13:20:19;14.00;;;8.03;;
3131;SDS011;62090;52.330;9.104;2022-12-20T13:25:49;12.00;;;8.60;;
3131;SDS011;62090;52.330;9.104;2022-12-20T13:34:00;14.27;;;8.80;;
3131;SDS011;62090;52.330;9.104;2022-12-20T13:42:13;13.02;;;7.82;;
3131;SDS011;62090;52.330;9.104;2022-12-20T13:44:52;14.93;;;7.30;;
3131;SDS011;62090;52.330;9.104;2022-12-20T13:47:30;12.47;;;8.20;;
3131;SDS011;62090;52.330;9.104;2022-12-20T13:50:21;12.27;;;7.73;;
3131;SDS011;62090;52.330;9.104;2022-12-20T13:52:57;9.93;;;7.60;;
3131;SDS011;62090;52.330;9.104;2022-12-20T13:55:32;17.10;;;8.40;;
3131;SDS011;62090;52.330;9.104;2022-12-20T13:58:09;9.10;;;7.87;;
3131;SDS011;62090;52.330;9.104;2022-12-20T14:00:43;15.30;;;8.63;;
3131;SDS011;62090;52.330;9.104;2022-12-20T14:03:17;11.97;;;7.63;;
3131;SDS011;62090;52.330;9.104;2022-12-20T14:05:52;11.40;;;7.80;;
3131;SDS011;62090;52.330;9.104;2022-12-20T14:08:26;13.77;;;8.07;;
3131;SDS011;62090;52.330;9.104;2022-12-20T14:11:07;9.77;;;7.40;;
3131;SDS011;62090;52.330;9.104;2022-12-20T14:13:49;11.63;;;7.80;;
3131;SDS011;62090;52.330;9.104;2022-12-20T14:16:24;13.90;;;7.73;;
3131;SDS011;62090;52.330;9.104;2022-12-20T14:19:02;15.50;;;7.70;;
3131;SDS011;62090;52.330;9.104;2022-12-20T14:21:33;12.60;;;8.37;;
3131;SDS011;62090;52.330;9.104;2022-12-20T14:24:05;12.43;;;8.33;;
3131;SDS011;62090;52.330;9.104;2022-12-20T14:26:44;19.20;;;8.27;;
3131;SDS011;62090;52.330;9.104;2022-12-20T14:29:21;13.30;;;7.37;;
3131;SDS011;62090;52.330;9.104;2022-12-20T14:31:56;15.60;;;8.97;;
3131;SDS011;62090;52.330;9.104;2022-12-20T14:34:26;10.90;;;7.27;;
3131;SDS011;62090;52.330;9.104;2022-12-20T14:37:17;14.37;;;8.33;;
3131;SDS011;62090;52.330;9.104;2022-12-20T14:39:59;13.60;;;8.80;;
3131;SDS011;62090;52.330;9.104;2022-12-20T14:42:32;10.77;;;7.27;;
3131;SDS011;62090;52.330;9.104;2022-12-20T14:45:15;10.97;;;7.10;;
3131;SDS011;62090;52.330;9.104;2022-12-20T14:47:48;11.53;;;7.90;;
3131;SDS011;62090;52.330;9.104;2022-12-20T14:50:23;14.47;;;8.40;;
3131;SDS011;62090;52.330;9.104;2022-12-20T14:52:58;11.13;;;8.53;;
3131;SDS011;62090;52.330;9.104;2022-12-20T14:55:32;12.20;;;8.57;;
3131;SDS011;62090;52.330;9.104;2022-12-20T14:58:05;11.33;;;8.17;;
3131;SDS011;62090;52.330;9.104;2022-12-20T15:00:57;11.97;;;8.60;;
3131;SDS011;62090;52.330;9.104;2022-12-20T15:03:29;13.23;;;8.00;;
3131;SDS011;62090;52.330;9.104;2022-12-20T15:05:59;11.07;;;7.60;;
3131;SDS011;62090;52.330;9.104;2022-12-20T15:08:29;11.73;;;8.60;;
3131;SDS011;62090;52.330;9.104;2022-12-20T15:11:01;12.33;;;8.40;;
3131;SDS011;62090;52.330;9.104;2022-12-20T15:13:39;13.80;;;9.60;;
3131;SDS011;62090;52.330;9.104;2022-12-20T15:16:15;13.83;;;8.43;;
3131;SDS011;62090;52.330;9.104;2022-12-20T15:18:48;14.20;;;8.20;;
3131;SDS011;62090;52.330;9.104;2022-12-20T15:21:22;13.53;;;8.27;;
3131;SDS011;62090;52.330;9.104;2022-12-20T15:23:56;14.50;;;8.40;;
3131;SDS011;62090;52.330;9.104;2022-12-20T15:26:28;12.57;;;8.43;;
3131;SDS011;62090;52.330;9.104;2022-12-20T15:28:59;11.07;;;7.70;;
3131;SDS011;62090;52.330;9.104;2022-12-20T15:31:32;14.73;;;8.20;;
3131;SDS011;62090;52.330;9.104;2022-12-20T15:34:05;11.20;;;7.37;;
3131;SDS011;62090;52.330;9.104;2022-12-20T15:36:42;10.13;;;7.13;;
3131;SDS011;62090;52.330;9.104;2022-12-20T15:39:12;12.60;;;6.60;;
3131;SDS011;62090;52.330;9.104;2022-12-20T15:41:43;13.87;;;7.10;;
3131;SDS011;62090;52.330;9.104;2022-12-20T15:44:18;12.97;;;7.43;;
3131;SDS011;62090;52.330;9.104;2022-12-20T15:46:52;8.90;;;6.40;;
3131;SDS011;62090;52.330;9.104;2022-12-20T15:49:22;15.60;;;6.90;;
3131;SDS011;62090;52.330;9.104;2022-12-20T15:51:53;12.40;;;6.97;;
3131;SDS011;62090;52.330;9.104;2022-12-20T15:54:24;11.00;;;6.40;;
3131;SDS011;62090;52.330;9.104;2022-12-20T15:56:56;8.67;;;6.00;;
3131;SDS011;62090;52.330;9.104;2022-12-20T15:59:28;11.37;;;6.70;;